CSZ648 RJTT-EPPO
Flight info
| Callsign | CSZ648 |
|---|---|
| Flight time | N/A |
| Altitude | 34000 |
| Route | AKAGI V15 GTC R211 KADBO B451 IGROD L168 RUSOT A333 LUTEL L168 AGUNI A333 OTMIR L168 GIRAM A333 IVADA L168 NIKRA A333 BESPA L168 KEGES A333 OSPIR L168 DELUK A333 IPREL L168 ODENA A333 BAKAT L168 LALIR A333 GIMOL L168 OKNOR A333 ORTEL L168 MORIB A333 NITUS L168 OKUNI A333 AKATA L168 RUKOL A333 DINOM L168 NRM N151 BEMRU N866 AGAMO DCT ETOBA DCT ERKOM DCT NITAS DCT MOHNI DCT ERMEX DCT NETNA DCT LEP N619 RONUS DCT TIGNU B73 RANOK P861 DEKUT |
| Aircraft | A21N/M-SDE2E3FGHILRWXY/LB2 |
Departure
| Time | 2026-05-06 15:47 |
|---|---|
| Airport | Tokyo Haneda International Airport (RJTT) |
Arrival
| Time | N/A |
|---|---|
| Airport | Poznań-Ławica Airport (EPPO) |
| Time | Latitude | Longitude | Altitude | Speed | Heading |
|---|---|---|---|---|---|
| 2026-05-06 15:22 | 35.54271 | 139.77191 | 43 ft | 0 kts | 240° |
| 2026-05-06 15:35 | 35.54277 | 139.77203 | 43 ft | 2 kts | 240° |
| 2026-05-06 15:35 | 35.54284 | 139.77219 | 43 ft | 2 kts | 240° |
| 2026-05-06 15:36 | 35.54292 | 139.77234 | 44 ft | 2 kts | 240° |
| 2026-05-06 15:36 | 35.54299 | 139.77251 | 44 ft | 2 kts | 240° |
| 2026-05-06 15:36 | 35.54307 | 139.77266 | 44 ft | 2 kts | 240° |
| 2026-05-06 15:36 | 35.54313 | 139.77278 | 44 ft | 0 kts | 240° |
| 2026-05-06 15:37 | 35.54320 | 139.77292 | 44 ft | 2 kts | 223° |
| 2026-05-06 15:37 | 35.54332 | 139.77303 | 43 ft | 2 kts | 206° |
| 2026-05-06 15:37 | 35.54346 | 139.77309 | 44 ft | 2 kts | 188° |
| 2026-05-06 15:37 | 35.54361 | 139.77310 | 43 ft | 2 kts | 171° |
| 2026-05-06 15:38 | 35.54376 | 139.77304 | 44 ft | 1 kts | 153° |
| 2026-05-06 15:38 | 35.54382 | 139.77301 | 44 ft | 1 kts | 148° |
| 2026-05-06 15:38 | 35.54383 | 139.77300 | 44 ft | 0 kts | 149° |
| 2026-05-06 15:40 | 35.54377 | 139.77303 | 43 ft | 2 kts | 148° |
| 2026-05-06 15:40 | 35.54354 | 139.77339 | 43 ft | 8 kts | 106° |
| 2026-05-06 15:40 | 35.54378 | 139.77429 | 43 ft | 13 kts | 60° |
| 2026-05-06 15:41 | 35.54427 | 139.77533 | 43 ft | 14 kts | 60° |
| 2026-05-06 15:41 | 35.54475 | 139.77634 | 43 ft | 10 kts | 59° |
| 2026-05-06 15:41 | 35.54530 | 139.77687 | 43 ft | 11 kts | 357° |
| 2026-05-06 15:41 | 35.54604 | 139.77643 | 43 ft | 12 kts | 330° |
| 2026-05-06 15:42 | 35.54690 | 139.77582 | 43 ft | 17 kts | 330° |
| 2026-05-06 15:42 | 35.54818 | 139.77489 | 43 ft | 24 kts | 330° |
| 2026-05-06 15:42 | 35.54973 | 139.77376 | 43 ft | 26 kts | 327° |
| 2026-05-06 15:42 | 35.55128 | 139.77267 | 44 ft | 25 kts | 330° |
| 2026-05-06 15:43 | 35.55278 | 139.77164 | 43 ft | 26 kts | 329° |
| 2026-05-06 15:43 | 35.55453 | 139.77039 | 43 ft | 28 kts | 330° |
| 2026-05-06 15:43 | 35.55594 | 139.76994 | 43 ft | 19 kts | 30° |
| 2026-05-06 15:43 | 35.55710 | 139.77092 | 43 ft | 22 kts | 34° |
| 2026-05-06 15:44 | 35.55859 | 139.77220 | 43 ft | 28 kts | 35° |
| 2026-05-06 15:44 | 35.55982 | 139.77408 | 43 ft | 29 kts | 60° |
| 2026-05-06 15:44 | 35.56087 | 139.77629 | 43 ft | 30 kts | 60° |
| 2026-05-06 15:44 | 35.56192 | 139.77850 | 43 ft | 30 kts | 60° |
| 2026-05-06 15:45 | 35.56296 | 139.78070 | 44 ft | 29 kts | 60° |
| 2026-05-06 15:45 | 35.56395 | 139.78279 | 43 ft | 27 kts | 60° |
| 2026-05-06 15:45 | 35.56491 | 139.78481 | 43 ft | 26 kts | 60° |
| 2026-05-06 15:45 | 35.56547 | 139.78601 | 43 ft | 6 kts | 61° |
| 2026-05-06 15:46 | 35.56560 | 139.78639 | 43 ft | 2 kts | 80° |
| 2026-05-06 15:46 | 35.56556 | 139.78668 | 43 ft | 4 kts | 118° |
| 2026-05-06 15:46 | 35.56532 | 139.78696 | 43 ft | 5 kts | 146° |
| 2026-05-06 15:46 | 35.56418 | 139.78777 | 44 ft | 48 kts | 150° |
| 2026-05-06 15:47 | 35.55929 | 139.79126 | 44 ft | 112 kts | 150° |
| 2026-05-06 15:47 | 35.55085 | 139.79724 | 44 ft | 166 kts | 150° |
| 2026-05-06 15:47 | 35.53978 | 139.80499 | 343 ft | 188 kts | 152° |
| 2026-05-06 15:47 | 35.52858 | 139.81273 | 1034 ft | 187 kts | 152° |
| 2026-05-06 15:48 | 35.51740 | 139.82066 | 1743 ft | 188 kts | 146° |
| 2026-05-06 15:48 | 35.50776 | 139.83138 | 2366 ft | 188 kts | 135° |
| 2026-05-06 15:48 | 35.49913 | 139.84322 | 2832 ft | 189 kts | 134° |
| 2026-05-06 15:48 | 35.49050 | 139.85522 | 3284 ft | 190 kts | 134° |
| 2026-05-06 15:49 | 35.48153 | 139.86737 | 3741 ft | 191 kts | 135° |
| 2026-05-06 15:49 | 35.47248 | 139.87938 | 4185 ft | 193 kts | 135° |
| 2026-05-06 15:49 | 35.46389 | 139.89281 | 4451 ft | 208 kts | 117° |
| 2026-05-06 15:49 | 35.46114 | 139.91075 | 4691 ft | 226 kts | 85° |
| 2026-05-06 15:50 | 35.46697 | 139.92914 | 4894 ft | 245 kts | 50° |
| 2026-05-06 15:50 | 35.48129 | 139.94121 | 5124 ft | 259 kts | 13° |
| 2026-05-06 15:50 | 35.49942 | 139.94090 | 5389 ft | 270 kts | 338° |
| 2026-05-06 15:50 | 35.51478 | 139.92755 | 5767 ft | 274 kts | 303° |
| 2026-05-06 15:51 | 35.52124 | 139.90593 | 6347 ft | 270 kts | 269° |
| 2026-05-06 15:51 | 35.51692 | 139.88406 | 6950 ft | 268 kts | 239° |
| 2026-05-06 15:51 | 35.50672 | 139.86504 | 7567 ft | 269 kts | 234° |
| 2026-05-06 15:51 | 35.49551 | 139.84656 | 8130 ft | 272 kts | 233° |
| 2026-05-06 15:52 | 35.48389 | 139.82799 | 8701 ft | 275 kts | 232° |
| 2026-05-06 15:52 | 35.47219 | 139.80948 | 9260 ft | 277 kts | 232° |
| 2026-05-06 15:52 | 35.46020 | 139.79063 | 9810 ft | 280 kts | 232° |
| 2026-05-06 15:52 | 35.44816 | 139.77185 | 10312 ft | 283 kts | 232° |
| 2026-05-06 15:53 | 35.43500 | 139.75301 | 10545 ft | 298 kts | 221° |
| 2026-05-06 15:53 | 35.41664 | 139.74026 | 10757 ft | 313 kts | 198° |
| 2026-05-06 15:53 | 35.39480 | 139.73544 | 10997 ft | 327 kts | 188° |
| 2026-05-06 15:53 | 35.37207 | 139.72932 | 11210 ft | 337 kts | 202° |
| 2026-05-06 15:54 | 35.35117 | 139.71593 | 11553 ft | 342 kts | 216° |
| 2026-05-06 15:54 | 35.33190 | 139.69879 | 12069 ft | 344 kts | 219° |
| 2026-05-06 15:54 | 35.31294 | 139.68106 | 12565 ft | 346 kts | 219° |
| 2026-05-06 15:54 | 35.29372 | 139.66301 | 13066 ft | 348 kts | 219° |
| 2026-05-06 15:55 | 35.27595 | 139.64250 | 13527 ft | 348 kts | 237° |
| 2026-05-06 15:55 | 35.26682 | 139.61546 | 13969 ft | 346 kts | 262° |
| 2026-05-06 15:55 | 35.26712 | 139.58597 | 14461 ft | 347 kts | 281° |
| 2026-05-06 15:55 | 35.27563 | 139.55855 | 14907 ft | 350 kts | 300° |
| 2026-05-06 15:56 | 35.29175 | 139.53581 | 15338 ft | 356 kts | 320° |
| 2026-05-06 15:56 | 35.31361 | 139.52142 | 15755 ft | 364 kts | 340° |
| 2026-05-06 15:56 | 35.33875 | 139.51758 | 16154 ft | 373 kts | 1° |
| 2026-05-06 15:56 | 35.36480 | 139.52118 | 16613 ft | 375 kts | 4° |
| 2026-05-06 15:57 | 35.39048 | 139.52544 | 16999 ft | 378 kts | 4° |
| 2026-05-06 15:57 | 35.41649 | 139.52969 | 17373 ft | 380 kts | 4° |
| 2026-05-06 15:57 | 35.44295 | 139.53389 | 17760 ft | 382 kts | 3° |
| 2026-05-06 15:57 | 35.46934 | 139.53795 | 18024 ft | 388 kts | 3° |
| 2026-05-06 15:58 | 35.49613 | 139.54201 | 18304 ft | 392 kts | 3° |
| 2026-05-06 15:58 | 35.52296 | 139.54607 | 18660 ft | 394 kts | 3° |
| 2026-05-06 15:58 | 35.55020 | 139.55017 | 19022 ft | 395 kts | 3° |
| 2026-05-06 15:58 | 35.57771 | 139.55429 | 19367 ft | 397 kts | 2° |
| 2026-05-06 15:59 | 35.60521 | 139.55841 | 19703 ft | 399 kts | 2° |
| 2026-05-06 15:59 | 35.63312 | 139.56259 | 20034 ft | 401 kts | 2° |
| 2026-05-06 15:59 | 35.66079 | 139.56673 | 20355 ft | 403 kts | 2° |
| 2026-05-06 15:59 | 35.68858 | 139.57089 | 20669 ft | 405 kts | 2° |
| 2026-05-06 16:00 | 35.71669 | 139.57510 | 20978 ft | 406 kts | 2° |
| 2026-05-06 16:00 | 35.74465 | 139.57928 | 21278 ft | 408 kts | 2° |
| 2026-05-06 16:00 | 35.77305 | 139.58354 | 21576 ft | 410 kts | 2° |
| 2026-05-06 16:00 | 35.80155 | 139.58780 | 21871 ft | 411 kts | 2° |
| 2026-05-06 16:01 | 35.82976 | 139.59203 | 22152 ft | 413 kts | 2° |
| 2026-05-06 16:01 | 35.85827 | 139.59631 | 22430 ft | 415 kts | 1° |
| 2026-05-06 16:01 | 35.88714 | 139.60063 | 22706 ft | 416 kts | 1° |
| 2026-05-06 16:01 | 35.91615 | 139.60402 | 22981 ft | 416 kts | 359° |
| 2026-05-06 16:02 | 35.94489 | 139.60700 | 23242 ft | 417 kts | 359° |
| 2026-05-06 16:02 | 35.97400 | 139.60992 | 23495 ft | 419 kts | 359° |
| 2026-05-06 16:02 | 36.00320 | 139.61287 | 23747 ft | 420 kts | 359° |
| 2026-05-06 16:02 | 36.03243 | 139.61585 | 23998 ft | 422 kts | 359° |
| 2026-05-06 16:03 | 36.06165 | 139.61883 | 24236 ft | 423 kts | 359° |
| 2026-05-06 16:03 | 36.09100 | 139.62184 | 24469 ft | 425 kts | 359° |
| 2026-05-06 16:03 | 36.12076 | 139.62491 | 24704 ft | 426 kts | 359° |
| 2026-05-06 16:03 | 36.15012 | 139.62793 | 24927 ft | 427 kts | 359° |
| 2026-05-06 16:04 | 36.18005 | 139.63103 | 25152 ft | 429 kts | 359° |
| 2026-05-06 16:04 | 36.20948 | 139.63406 | 25375 ft | 430 kts | 359° |
| 2026-05-06 16:04 | 36.23952 | 139.63718 | 25593 ft | 431 kts | 358° |
| 2026-05-06 16:04 | 36.26944 | 139.64026 | 25806 ft | 432 kts | 358° |
| 2026-05-06 16:05 | 36.29968 | 139.64339 | 26010 ft | 433 kts | 358° |
| 2026-05-06 16:05 | 36.32944 | 139.64645 | 26215 ft | 434 kts | 358° |
| 2026-05-06 16:05 | 36.35985 | 139.64960 | 26408 ft | 436 kts | 358° |
| 2026-05-06 16:05 | 36.39021 | 139.65273 | 26597 ft | 437 kts | 358° |
| 2026-05-06 16:06 | 36.42042 | 139.65585 | 26779 ft | 438 kts | 358° |
| 2026-05-06 16:06 | 36.45099 | 139.65887 | 26966 ft | 438 kts | 356° |
| 2026-05-06 16:06 | 36.48109 | 139.65877 | 27143 ft | 432 kts | 349° |
| 2026-05-06 16:06 | 36.51084 | 139.65416 | 27314 ft | 427 kts | 342° |
| 2026-05-06 16:07 | 36.53961 | 139.64546 | 27482 ft | 424 kts | 338° |
| 2026-05-06 16:07 | 36.56778 | 139.63530 | 27650 ft | 424 kts | 337° |
| 2026-05-06 16:07 | 36.59615 | 139.62477 | 27799 ft | 426 kts | 337° |
| 2026-05-06 16:07 | 36.62457 | 139.61417 | 27882 ft | 429 kts | 337° |
| 2026-05-06 16:08 | 36.65326 | 139.60353 | 28021 ft | 430 kts | 337° |
| 2026-05-06 16:08 | 36.68186 | 139.59294 | 28240 ft | 429 kts | 337° |
| 2026-05-06 16:08 | 36.71044 | 139.58241 | 28496 ft | 428 kts | 337° |
| 2026-05-06 16:08 | 36.73898 | 139.57190 | 28734 ft | 427 kts | 337° |
| 2026-05-06 16:09 | 36.76741 | 139.56142 | 28953 ft | 426 kts | 337° |
| 2026-05-06 16:09 | 36.79596 | 139.55089 | 29182 ft | 425 kts | 337° |
| 2026-05-06 16:09 | 36.82420 | 139.54047 | 29398 ft | 424 kts | 337° |
| 2026-05-06 16:09 | 36.85247 | 139.53003 | 29600 ft | 424 kts | 336° |
| 2026-05-06 16:10 | 36.88083 | 139.51955 | 29807 ft | 424 kts | 336° |
| 2026-05-06 16:10 | 36.90894 | 139.50914 | 30029 ft | 422 kts | 336° |
| 2026-05-06 16:10 | 36.93714 | 139.49869 | 30253 ft | 421 kts | 336° |
| 2026-05-06 16:10 | 36.96497 | 139.48839 | 30471 ft | 420 kts | 336° |
| 2026-05-06 16:11 | 36.99313 | 139.47797 | 30697 ft | 419 kts | 336° |
| 2026-05-06 16:11 | 37.02124 | 139.46759 | 30922 ft | 418 kts | 335° |
| 2026-05-06 16:11 | 37.04908 | 139.45728 | 31115 ft | 417 kts | 335° |
| 2026-05-06 16:11 | 37.07659 | 139.44705 | 31295 ft | 417 kts | 335° |
| 2026-05-06 16:12 | 37.10439 | 139.43672 | 31466 ft | 417 kts | 334° |
| 2026-05-06 16:12 | 37.13236 | 139.42638 | 31637 ft | 417 kts | 334° |
| 2026-05-06 16:12 | 37.15992 | 139.41617 | 31803 ft | 416 kts | 334° |
| 2026-05-06 16:12 | 37.18781 | 139.40579 | 31974 ft | 416 kts | 334° |
| 2026-05-06 16:13 | 37.21555 | 139.39546 | 32077 ft | 416 kts | 334° |
| 2026-05-06 16:13 | 37.24307 | 139.38519 | 32084 ft | 416 kts | 334° |
| 2026-05-06 16:13 | 37.29841 | 139.36450 | 32091 ft | 416 kts | 334° |
| 2026-05-06 16:14 | 37.35396 | 139.34366 | 32095 ft | 415 kts | 333° |
| 2026-05-06 16:14 | 37.40892 | 139.32280 | 32093 ft | 415 kts | 333° |
| 2026-05-06 16:15 | 37.46429 | 139.30186 | 32092 ft | 415 kts | 333° |
| 2026-05-06 16:15 | 37.51955 | 139.28104 | 32092 ft | 415 kts | 333° |
| 2026-05-06 16:16 | 37.57492 | 139.26016 | 32092 ft | 415 kts | 333° |
| 2026-05-06 16:16 | 37.63020 | 139.23930 | 32092 ft | 415 kts | 333° |
| 2026-05-06 16:17 | 37.68540 | 139.21846 | 32092 ft | 415 kts | 333° |
| 2026-05-06 16:17 | 37.74044 | 139.19763 | 32092 ft | 415 kts | 333° |
| 2026-05-06 16:18 | 37.79562 | 139.17671 | 32093 ft | 415 kts | 333° |
| 2026-05-06 16:18 | 37.85099 | 139.15570 | 32093 ft | 415 kts | 333° |
| 2026-05-06 16:19 | 37.90528 | 139.13255 | 32091 ft | 408 kts | 328° |
| 2026-05-06 16:19 | 37.95575 | 139.10237 | 32091 ft | 400 kts | 322° |
| 2026-05-06 16:20 | 38.00269 | 139.06505 | 32092 ft | 392 kts | 316° |
| 2026-05-06 16:20 | 38.04507 | 139.02257 | 32094 ft | 387 kts | 312° |
| 2026-05-06 16:21 | 38.08614 | 138.97900 | 32092 ft | 386 kts | 312° |
| 2026-05-06 16:21 | 38.10685 | 138.95695 | 32093 ft | 386 kts | 312° |